Time;durP1;ratioP1;P1;durP2;ratioP2;P2;SDS_P1;SDS_P2;PMS_P1;PMS_P2;Temp;Humidity;BMP_temperature;BMP_pressure;BME280_temperature;BME280_humidity;BME280_pressure;Samples;Min_cycle;Max_cycle;Signal;HPM_P1;HPM_P2
2021/07/22 00:02:26;;;;;;;2.33;1.50;;;28.80;72.60;;;;;;5023539;28;20034;-42
2021/07/22 00:04:52;;;;;;;1.60;1.50;;;28.80;72.60;;;;;;5022037;28;20026;-42
2021/07/22 00:07:18;;;;;;;1.67;1.57;;;28.70;72.60;;;;;;5003992;28;20045;-43
2021/07/22 00:09:47;;;;;;;1.77;1.67;;;28.70;72.60;;;;;;5003827;28;20260;-42
2021/07/22 00:12:21;;;;;;;1.85;1.73;;;28.70;72.60;;;;;;5003539;28;20054;-43
2021/07/22 00:14:47;;;;;;;2.03;1.83;;;28.70;72.60;;;;;;4988226;28;20084;-43
2021/07/22 00:17:16;;;;;;;1.55;1.45;;;28.70;72.60;;;;;;4995069;28;20041;-43
2021/07/22 00:19:51;;;;;;;1.70;1.60;;;28.70;72.60;;;;;;4984220;28;20031;-43
2021/07/22 00:22:25;;;;;;;2.03;1.83;;;28.70;72.60;;;;;;4991274;28;20042;-42
2021/07/22 00:24:55;;;;;;;2.95;1.65;;;28.70;72.70;;;;;;5022901;28;20129;-43
2021/07/22 00:27:33;;;;;;;;;;;;;;;;;;;;;
2021/07/22 00:30:02;;;;;;;1.70;1.60;;;28.70;72.80;;;;;;5105926;28;20115;-42
2021/07/22 00:32:34;;;;;;;1.60;1.50;;;28.70;72.80;;;;;;5105885;28;20035;-43
2021/07/22 00:35:00;;;;;;;1.65;1.55;;;28.70;72.80;;;;;;5087447;28;20091;-43
2021/07/22 00:37:29;;;;;;;1.73;1.50;;;28.70;72.80;;;;;;5105825;28;20089;-43
2021/07/22 00:40:18;;;;;;;2.05;1.50;;;28.70;72.70;;;;;;5105568;28;20048;-43
2021/07/22 00:43:16;;;;;;;2.33;1.83;;;28.70;72.90;;;;;;5105680;28;20023;-43
2021/07/22 00:45:48;;;;;;;1.63;1.52;;;28.70;72.90;;;;;;5002993;28;20047;-43
2021/07/22 00:48:14;;;;;;;1.77;1.67;;;28.60;72.80;;;;;;4998152;28;20026;-42
2021/07/22 00:50:49;;;;;;;1.60;1.50;;;28.60;72.80;;;;;;5003294;28;20053;-43
2021/07/22 00:53:27;;;;;;;1.80;1.70;;;28.60;72.80;;;;;;5002877;28;20030;-43
2021/07/22 00:55:53;;;;;;;1.90;1.70;;;28.60;72.80;;;;;;5002838;28;20094;-43
2021/07/22 00:58:19;;;;;;;1.70;1.53;;;28.60;72.90;;;;;;5002953;28;20030;-43
2021/07/22 01:00:48;;;;;;;1.65;1.55;;;28.60;72.80;;;;;;5002936;28;20334;-43
2021/07/22 01:03:17;;;;;;;2.45;1.60;;;28.60;72.80;;;;;;5003059;28;20073;-42
2021/07/22 01:05:43;;;;;;;1.63;1.52;;;28.60;72.80;;;;;;5002459;28;20061;-42
2021/07/22 01:08:09;;;;;;;1.70;1.60;;;28.60;72.90;;;;;;5002865;28;20038;-42
2021/07/22 01:10:38;;;;;;;1.80;1.63;;;28.60;72.90;;;;;;5002194;28;20034;-43
2021/07/22 01:13:05;;;;;;;1.50;1.40;;;28.50;72.70;;;;;;5002455;28;20299;-42
2021/07/22 01:15:34;;;;;;;1.50;1.40;;;28.50;72.80;;;;;;5002331;28;20042;-42
2021/07/22 01:18:05;;;;;;;1.50;1.40;;;28.50;72.80;;;;;;5002690;28;20066;-42
2021/07/22 01:20:34;;;;;;;1.70;1.60;;;28.50;72.90;;;;;;5002748;28;20030;-43
2021/07/22 01:23:03;;;;;;;1.85;1.75;;;28.50;72.90;;;;;;5065814;28;20040;-43
2021/07/22 01:25:35;;;;;;;1.92;1.83;;;28.50;72.90;;;;;;5105065;28;20077;-45
2021/07/22 01:28:01;;;;;;;1.90;1.70;;;28.50;72.90;;;;;;5104885;28;20059;-43
2021/07/22 01:30:27;;;;;;;1.70;1.60;;;28.50;73.00;;;;;;5104656;28;20032;-43
2021/07/22 01:33:06;;;;;;;1.83;1.50;;;28.50;72.90;;;;;;5104749;28;20268;-43
2021/07/22 01:35:41;;;;;;;1.85;1.60;;;28.50;73.00;;;;;;5104234;28;20048;-43
2021/07/22 01:38:07;;;;;;;1.80;1.70;;;28.50;73.00;;;;;;5104082;28;20045;-42
2021/07/22 01:40:34;;;;;;;1.92;1.73;;;28.40;72.90;;;;;;5104096;28;20117;-43
2021/07/22 01:43:04;;;;;;;2.37;1.77;;;28.40;73.00;;;;;;5104586;28;20040;-43
2021/07/22 01:45:30;;;;;;;2.10;1.90;;;28.40;73.00;;;;;;5104468;28;20028;-43
2021/07/22 01:47:57;;;;;;;2.30;1.43;;;28.40;73.00;;;;;;5104382;28;20035;-43
2021/07/22 01:50:23;;;;;;;;;;;28.40;73.00;;;;;;5104507;28;20288;-43
2021/07/22 01:52:49;;;;;;;1.80;1.70;;;28.40;73.00;;;;;;5104336;28;19908;-42
2021/07/22 01:55:15;;;;;;;1.50;1.40;;;28.40;73.00;;;;;;5104424;28;20016;-43
2021/07/22 01:57:41;;;;;;;1.50;1.40;;;28.40;73.00;;;;;;5104551;28;20035;-43
2021/07/22 02:00:09;;;;;;;1.70;1.60;;;28.40;73.10;;;;;;5103957;28;20785;-43
2021/07/22 02:02:35;;;;;;;1.55;1.45;;;28.40;73.00;;;;;;5103791;28;20101;-42
2021/07/22 02:05:02;;;;;;;2.03;1.55;;;28.40;73.00;;;;;;5104235;28;20096;-42
2021/07/22 02:07:28;;;;;;;1.87;1.50;;;28.30;73.10;;;;;;5103928;28;20053;-43
2021/07/22 02:09:54;;;;;;;1.73;1.60;;;28.30;73.00;;;;;;5103609;28;20265;-42
2021/07/22 02:12:20;;;;;;;1.67;1.58;;;28.30;73.10;;;;;;5103440;28;20062;-42
2021/07/22 02:14:50;;;;;;;1.70;1.60;;;28.30;73.00;;;;;;5103924;28;20024;-45
2021/07/22 02:17:17;;;;;;;1.70;1.58;;;28.30;73.10;;;;;;5103542;28;20028;-42
2021/07/22 02:19:44;;;;;;;1.48;1.38;;;28.30;73.00;;;;;;5085558;28;20051;-42
2021/07/22 02:22:10;;;;;;;1.75;1.65;;;28.30;73.10;;;;;;5103377;28;20024;-42
2021/07/22 02:24:36;;;;;;;1.93;1.83;;;28.30;73.00;;;;;;5103597;28;20040;-42
2021/07/22 02:27:02;;;;;;;2.07;1.80;;;28.30;73.00;;;;;;5103714;28;20069;-42
2021/07/22 02:29:28;;;;;;;1.80;1.70;;;28.30;73.00;;;;;;5103745;28;20028;-43
2021/07/22 02:31:54;;;;;;;1.83;1.40;;;28.20;72.90;;;;;;5103290;28;20040;-43
2021/07/22 02:34:20;;;;;;;1.50;1.40;;;28.20;73.00;;;;;;5103597;28;20035;-43
2021/07/22 02:36:47;;;;;;;2.67;1.60;;;28.20;72.90;;;;;;5103477;28;20346;-43
2021/07/22 02:39:13;;;;;;;1.83;1.73;;;28.20;72.90;;;;;;5103213;28;20035;-42
2021/07/22 02:41:39;;;;;;;1.80;1.70;;;28.20;73.00;;;;;;5103289;28;20096;-42
2021/07/22 02:44:05;;;;;;;1.50;1.40;;;28.20;72.90;;;;;;5103383;28;20048;-43
2021/07/22 02:46:32;;;;;;;1.60;1.50;;;28.20;73.00;;;;;;5103402;28;20334;-43
2021/07/22 02:48:58;;;;;;;1.42;1.33;;;28.20;73.00;;;;;;5103284;28;20039;-43
2021/07/22 02:51:24;;;;;;;2.03;1.90;;;28.20;73.00;;;;;;5102139;28;20039;-43
2021/07/22 02:53:50;;;;;;;1.60;1.50;;;28.20;73.00;;;;;;5103107;28;20029;-42
2021/07/22 02:56:16;;;;;;;2.00;1.60;;;28.20;73.00;;;;;;5103424;28;20133;-43
2021/07/22 02:58:42;;;;;;;1.90;1.70;;;28.10;73.60;;;;;;5103033;28;20054;-43
2021/07/22 03:01:11;;;;;;;2.33;2.10;;;28.10;72.90;;;;;;5102935;28;20323;-43
2021/07/22 03:03:37;;;;;;;1.75;1.65;;;28.10;73.00;;;;;;5103036;28;20466;-43
2021/07/22 03:06:04;;;;;;;1.70;1.60;;;28.10;73.00;;;;;;5103182;28;20074;-43
2021/07/22 03:08:30;;;;;;;1.93;1.80;;;28.10;73.00;;;;;;5102715;28;20032;-42
2021/07/22 03:10:56;;;;;;;1.87;1.70;;;28.10;73.00;;;;;;5102697;28;20039;-42
2021/07/22 03:13:22;;;;;;;1.70;1.47;;;28.10;73.00;;;;;;5102891;28;20272;-43
2021/07/22 03:15:48;;;;;;;3.20;1.70;;;28.10;73.10;;;;;;5102923;28;20031;-43
2021/07/22 03:18:14;;;;;;;2.17;1.53;;;28.10;73.00;;;;;;5102923;28;20123;-42
2021/07/22 03:20:40;;;;;;;1.70;1.60;;;28.10;73.10;;;;;;5102470;28;20024;-42
2021/07/22 03:23:07;;;;;;;1.90;1.70;;;28.10;73.10;;;;;;5102278;28;20177;-42
2021/07/22 03:25:33;;;;;;;1.87;1.73;;;28.00;73.00;;;;;;5102734;28;20035;-42
2021/07/22 03:28:04;;;;;;;1.60;1.50;;;28.00;72.90;;;;;;5102999;28;20346;-43
2021/07/22 03:30:30;;;;;;;2.20;1.67;;;28.00;73.00;;;;;;5105423;28;20091;-42
2021/07/22 03:32:56;;;;;;;1.50;1.40;;;28.00;73.00;;;;;;5106646;28;20032;-42
2021/07/22 03:35:22;;;;;;;2.23;1.83;;;28.00;73.00;;;;;;5106982;28;20267;-42
2021/07/22 03:37:48;;;;;;;2.73;1.73;;;28.00;72.90;;;;;;5106492;28;20031;-43
2021/07/22 03:40:15;;;;;;;1.92;1.67;;;28.00;73.00;;;;;;5106808;28;20036;-43
2021/07/22 03:42:41;;;;;;;1.80;1.70;;;28.00;73.00;;;;;;5106437;28;20038;-43
2021/07/22 03:45:07;;;;;;;1.77;1.67;;;28.00;73.00;;;;;;5106731;28;20261;-42
2021/07/22 03:47:33;;;;;;;1.85;1.75;;;28.00;73.00;;;;;;5106730;28;20523;-42
2021/07/22 03:49:59;;;;;;;1.83;1.60;;;27.90;73.00;;;;;;5106660;28;20135;-42
2021/07/22 03:52:26;;;;;;;1.60;1.50;;;27.90;73.00;;;;;;5106210;28;20038;-42
2021/07/22 03:54:52;;;;;;;2.00;1.80;;;27.90;73.00;;;;;;5106453;28;20119;-43
2021/07/22 03:57:18;;;;;;;1.80;1.70;;;27.90;73.00;;;;;;5106527;28;20032;-42
2021/07/22 03:59:44;;;;;;;2.13;1.60;;;27.90;73.00;;;;;;5106175;28;20051;-42
2021/07/22 04:02:10;;;;;;;1.97;1.77;;;27.90;73.00;;;;;;5106184;28;20055;-42
2021/07/22 04:04:36;;;;;;;2.22;1.58;;;27.90;73.00;;;;;;5106574;28;20035;-42
2021/07/22 04:07:02;;;;;;;1.80;1.60;;;27.90;73.00;;;;;;5105872;28;20028;-43
2021/07/22 04:09:29;;;;;;;2.55;1.85;;;27.90;73.00;;;;;;5106389;28;20099;-42
2021/07/22 04:11:55;;;;;;;1.87;1.60;;;27.80;72.90;;;;;;5106241;28;20051;-43
2021/07/22 04:14:21;;;;;;;3.22;1.70;;;27.80;72.90;;;;;;5105964;28;20050;-42
2021/07/22 04:16:47;;;;;;;2.90;1.63;;;27.80;72.90;;;;;;5105890;28;20028;-42
2021/07/22 04:19:13;;;;;;;1.93;1.73;;;27.80;72.90;;;;;;5106011;28;20032;-43
2021/07/22 04:21:39;;;;;;;2.03;1.33;;;27.80;72.80;;;;;;5105904;28;20028;-43
2021/07/22 04:24:05;;;;;;;1.60;1.50;;;27.80;72.80;;;;;;5105530;28;20021;-42
2021/07/22 04:26:32;;;;;;;1.83;1.60;;;27.80;72.90;;;;;;5106015;28;20028;-42
2021/07/22 04:28:58;;;;;;;1.90;1.53;;;27.80;72.90;;;;;;5105725;28;20036;-42
2021/07/22 04:31:24;;;;;;;1.97;1.87;;;27.80;72.90;;;;;;5105935;28;20043;-43
2021/07/22 04:33:50;;;;;;;2.17;1.57;;;27.80;72.90;;;;;;5105745;28;20020;-42
2021/07/22 04:36:16;;;;;;;1.53;1.43;;;27.80;72.90;;;;;;5105676;28;20397;-42
2021/07/22 04:38:42;;;;;;;1.80;1.70;;;27.70;72.80;;;;;;5105586;28;20028;-42
2021/07/22 04:41:09;;;;;;;2.17;1.40;;;27.70;72.90;;;;;;5105172;28;20046;-42
2021/07/22 04:43:35;;;;;;;1.73;1.50;;;27.70;73.00;;;;;;5105306;28;20035;-42
2021/07/22 04:46:02;;;;;;;2.03;1.57;;;27.70;72.80;;;;;;5105718;28;20031;-42
2021/07/22 04:48:29;;;;;;;2.50;2.20;;;27.70;72.70;;;;;;5105370;28;20020;-42
2021/07/22 04:50:55;;;;;;;;;;;27.70;72.80;;;;;;5105841;28;20036;-43
2021/07/22 04:53:21;;;;;;;3.88;1.60;;;27.70;72.70;;;;;;5105034;28;20011;-42
2021/07/22 04:55:47;;;;;;;1.73;1.50;;;27.70;72.70;;;;;;5105139;28;20032;-43
2021/07/22 04:58:13;;;;;;;1.80;1.70;;;27.70;73.60;;;;;;5105368;28;20044;-42
2021/07/22 05:00:39;;;;;;;2.10;1.60;;;27.70;72.80;;;;;;5105220;28;20349;-42
2021/07/22 05:03:06;;;;;;;1.80;1.70;;;27.70;72.80;;;;;;5104849;28;20047;-42
2021/07/22 05:05:36;;;;;;;1.80;1.57;;;27.60;72.80;;;;;;5105112;28;20036;-42
2021/07/22 05:08:03;;;;;;;1.60;1.45;;;27.60;72.80;;;;;;5105123;28;20126;-42
2021/07/22 05:10:29;;;;;;;;;;;27.60;72.80;;;;;;5105276;28;20051;-42
2021/07/22 05:13:01;;;;;;;1.60;1.30;;;27.60;72.70;;;;;;5104664;28;19938;-42
2021/07/22 05:15:27;;;;;;;2.05;1.67;;;27.60;72.90;;;;;;5104739;28;20062;-42
2021/07/22 05:17:53;;;;;;;1.73;1.58;;;27.60;72.80;;;;;;5105052;28;20103;-42
2021/07/22 05:20:20;;;;;;;1.65;1.48;;;27.60;72.90;;;;;;5105007;28;20032;-42
2021/07/22 05:22:46;;;;;;;2.17;1.80;;;27.60;72.80;;;;;;5086591;28;20039;-42
2021/07/22 05:25:12;;;;;;;3.37;1.80;;;27.60;72.90;;;;;;5104276;28;20074;-42
2021/07/22 05:27:38;;;;;;;2.30;1.50;;;27.60;72.80;;;;;;5104592;28;20034;-42
2021/07/22 05:30:05;;;;;;;1.83;1.70;;;27.50;72.60;;;;;;5104664;28;20035;-42
2021/07/22 05:32:31;;;;;;;1.90;1.80;;;27.50;72.80;;;;;;5104661;28;20032;-42
2021/07/22 05:34:57;;;;;;;1.80;1.70;;;27.50;72.70;;;;;;5104219;28;20028;-42
2021/07/22 05:37:24;;;;;;;1.43;1.30;;;27.50;72.60;;;;;;5104456;28;20058;-42
2021/07/22 05:39:50;;;;;;;2.30;1.47;;;27.50;72.60;;;;;;5104303;28;20288;-42
2021/07/22 05:42:16;;;;;;;1.50;1.40;;;27.50;72.60;;;;;;5104414;28;20328;-43
2021/07/22 05:44:42;;;;;;;2.35;1.67;;;27.50;72.60;;;;;;5103897;28;20028;-42
2021/07/22 05:47:09;;;;;;;1.75;1.40;;;27.50;72.60;;;;;;5104202;28;20032;-43
2021/07/22 05:49:35;;;;;;;1.50;1.40;;;27.50;72.50;;;;;;5104313;28;20028;-42
2021/07/22 05:52:01;;;;;;;1.83;1.60;;;27.50;72.50;;;;;;5103275;28;20036;-42
2021/07/22 05:54:27;;;;;;;3.33;1.53;;;27.50;72.40;;;;;;5103971;28;20028;-42
2021/07/22 05:56:54;;;;;;;1.60;1.50;;;27.40;72.30;;;;;;5104105;28;20488;-42
2021/07/22 05:59:20;;;;;;;3.05;1.60;;;27.40;72.40;;;;;;5103359;28;20700;-43
2021/07/22 06:01:46;;;;;;;2.63;1.57;;;27.40;72.30;;;;;;5103244;28;20027;-42
2021/07/22 06:04:12;;;;;;;2.08;1.60;;;27.40;72.30;;;;;;5103035;28;20035;-42
2021/07/22 06:06:42;;;;;;;2.53;1.50;;;27.40;72.40;;;;;;5103154;28;20114;-42
2021/07/22 06:09:09;;;;;;;2.20;1.77;;;27.40;72.20;;;;;;5102598;28;20032;-42
2021/07/22 06:11:35;;;;;;;1.67;1.40;;;27.40;72.20;;;;;;5100746;28;20511;-45
2021/07/22 06:14:01;;;;;;;3.83;1.67;;;27.40;72.40;;;;;;5102848;28;20028;-42
2021/07/22 06:16:29;;;;;;;1.67;1.47;;;27.40;72.50;;;;;;5103006;28;20092;-42
2021/07/22 06:18:56;;;;;;;1.55;1.45;;;27.30;72.50;;;;;;5102801;28;20031;-42
2021/07/22 06:21:22;;;;;;;1.90;1.53;;;27.30;72.30;;;;;;5103014;28;20706;-42
2021/07/22 06:23:48;;;;;;;1.33;1.20;;;27.30;72.60;;;;;;5102540;28;20287;-42
2021/07/22 06:26:14;;;;;;;1.97;1.67;;;27.30;72.40;;;;;;5102475;28;20043;-42
2021/07/22 06:28:41;;;;;;;1.43;1.33;;;27.30;72.50;;;;;;5102779;28;20054;-42
2021/07/22 06:31:07;;;;;;;2.05;1.70;;;27.30;72.40;;;;;;5102606;28;20377;-42
2021/07/22 06:33:33;;;;;;;1.60;1.50;;;27.30;72.60;;;;;;5102710;28;20630;-42
2021/07/22 06:36:00;;;;;;;1.40;1.30;;;27.20;72.40;;;;;;5102472;28;20032;-42
2021/07/22 06:38:34;;;;;;;1.70;1.40;;;27.20;72.20;;;;;;5102515;28;20035;-42
2021/07/22 06:41:00;;;;;;;1.30;1.20;;;27.20;72.20;;;;;;5102504;28;20265;-42
2021/07/22 06:43:29;;;;;;;1.60;1.50;;;27.20;72.30;;;;;;5102602;28;20024;-43
2021/07/22 06:45:55;;;;;;;2.72;1.60;;;27.20;72.20;;;;;;5102428;28;20056;-42
2021/07/22 06:48:21;;;;;;;1.65;1.35;;;27.20;72.20;;;;;;5102535;28;20030;-42
2021/07/22 06:50:48;;;;;;;1.80;1.63;;;27.20;72.20;;;;;;5102520;28;20032;-44
2021/07/22 06:53:14;;;;;;;2.20;1.60;;;27.20;72.20;;;;;;5102364;28;20031;-42
2021/07/22 06:55:40;;;;;;;1.57;1.47;;;27.20;72.30;;;;;;5102076;28;20035;-42
2021/07/22 06:58:10;;;;;;;1.63;1.40;;;27.20;72.20;;;;;;4983572;28;3367169;-42
2021/07/22 07:00:37;;;;;;;1.60;1.50;;;27.10;72.10;;;;;;5085150;28;20081;-42
2021/07/22 07:03:06;;;;;;;3.13;1.40;;;27.10;72.10;;;;;;5084508;28;20039;-42
2021/07/22 07:05:33;;;;;;;1.80;1.42;;;27.10;72.10;;;;;;5102914;28;20048;-42
2021/07/22 07:07:59;;;;;;;1.85;1.33;;;27.10;72.10;;;;;;5102463;28;20039;-42
2021/07/22 07:10:25;;;;;;;2.07;1.30;;;27.10;72.10;;;;;;5103087;28;20039;-42
2021/07/22 07:12:52;;;;;;;1.60;1.50;;;27.10;72.10;;;;;;5103062;28;20027;-42
2021/07/22 07:15:19;;;;;;;1.40;1.30;;;27.10;72.10;;;;;;5102707;28;20032;-42
2021/07/22 07:17:45;;;;;;;;;;;27.10;72.20;;;;;;5103184;28;20080;-42
2021/07/22 07:20:12;;;;;;;2.05;1.33;;;27.10;72.20;;;;;;5102931;28;19908;-42
2021/07/22 07:22:38;;;;;;;1.30;1.20;;;27.10;72.10;;;;;;5102641;28;20021;-42
2021/07/22 07:25:04;;;;;;;1.67;1.40;;;27.00;72.10;;;;;;5102549;28;20024;-42
2021/07/22 07:27:30;;;;;;;3.05;1.63;;;27.00;72.10;;;;;;5102976;28;20016;-42
2021/07/22 07:29:56;;;;;;;3.33;1.50;;;27.00;72.10;;;;;;5102970;28;20582;-42
2021/07/22 07:32:23;;;;;;;1.52;1.25;;;27.00;72.20;;;;;;5102569;28;20036;-43
2021/07/22 07:34:49;;;;;;;1.57;1.47;;;27.00;72.10;;;;;;5102485;28;20103;-42
2021/07/22 07:37:15;;;;;;;1.67;1.33;;;27.00;72.10;;;;;;5102124;28;20087;-42
2021/07/22 07:39:41;;;;;;;1.63;1.52;;;27.00;72.20;;;;;;5102643;28;20023;-42
2021/07/22 07:42:07;;;;;;;2.00;1.60;;;27.00;72.20;;;;;;5102617;28;20035;-42
2021/07/22 07:44:33;;;;;;;1.50;1.40;;;27.00;72.20;;;;;;5102782;28;20035;-42
2021/07/22 07:46:59;;;;;;;1.50;1.38;;;27.00;72.20;;;;;;5102505;28;20039;-42
2021/07/22 07:49:26;;;;;;;1.50;1.40;;;26.90;72.00;;;;;;5102782;28;20099;-42
2021/07/22 07:51:52;;;;;;;1.45;1.35;;;26.90;72.00;;;;;;5102604;28;20092;-42
2021/07/22 07:54:22;;;;;;;1.80;1.50;;;26.90;72.10;;;;;;5084147;28;20060;-42
2021/07/22 07:56:51;;;;;;;2.35;1.55;;;26.90;72.10;;;;;;5102318;28;20032;-42
2021/07/22 07:59:18;;;;;;;1.50;1.40;;;26.90;72.20;;;;;;5102581;28;20052;-42
2021/07/22 08:01:44;;;;;;;1.42;1.33;;;26.90;72.10;;;;;;5102460;28;20028;-42
2021/07/22 08:04:10;;;;;;;1.47;1.37;;;26.90;72.10;;;;;;5102595;28;20024;-44
2021/07/22 08:06:36;;;;;;;1.42;1.25;;;26.90;72.10;;;;;;5102248;28;20032;-42
2021/07/22 08:09:03;;;;;;;1.83;1.40;;;26.80;72.10;;;;;;5102432;28;20054;-42
2021/07/22 08:11:29;;;;;;;1.38;1.27;;;26.80;72.00;;;;;;5102493;28;20040;-42
2021/07/22 08:13:55;;;;;;;1.47;1.30;;;26.80;72.10;;;;;;5102586;28;20032;-42
2021/07/22 08:16:22;;;;;;;1.48;1.38;;;26.80;72.80;;;;;;5104592;28;20057;-42
2021/07/22 08:18:50;;;;;;;1.50;1.40;;;26.80;72.10;;;;;;5105837;28;20043;-42
2021/07/22 08:21:16;;;;;;;2.58;1.42;;;26.80;72.10;;;;;;5106027;28;20036;-42
2021/07/22 08:23:42;;;;;;;1.55;1.45;;;26.80;72.10;;;;;;5105942;28;20069;-43
2021/07/22 08:26:09;;;;;;;1.87;1.30;;;26.80;72.10;;;;;;5105808;28;20662;-42
2021/07/22 08:28:35;;;;;;;2.20;1.40;;;26.80;72.20;;;;;;5106185;28;20032;-42
2021/07/22 08:31:02;;;;;;;1.73;1.40;;;26.70;72.10;;;;;;5105576;28;20118;-42
2021/07/22 08:33:28;;;;;;;3.28;1.48;;;26.70;72.20;;;;;;5106113;28;20099;-42
2021/07/22 08:35:54;;;;;;;1.87;1.53;;;26.70;72.10;;;;;;5105724;28;20036;-42
2021/07/22 08:38:20;;;;;;;1.53;1.43;;;26.70;72.10;;;;;;5105677;28;20024;-42
2021/07/22 08:40:46;;;;;;;1.60;1.42;;;26.70;72.10;;;;;;5105697;28;20048;-42
2021/07/22 08:43:12;;;;;;;1.50;1.30;;;26.70;72.20;;;;;;5105906;28;20031;-43
2021/07/22 08:45:39;;;;;;;1.77;1.67;;;26.70;72.10;;;;;;5105652;28;20038;-42
2021/07/22 08:48:05;;;;;;;1.58;1.42;;;26.70;72.10;;;;;;5070572;28;20038;-42
2021/07/22 08:50:31;;;;;;;1.40;1.30;;;26.70;72.10;;;;;;5105718;28;20032;-42
2021/07/22 08:52:57;;;;;;;1.20;1.10;;;26.70;72.10;;;;;;5105197;28;20062;-42
2021/07/22 08:55:24;;;;;;;1.60;1.33;;;26.70;72.10;;;;;;5087239;28;20031;-43
2021/07/22 08:57:50;;;;;;;1.40;1.30;;;26.70;72.20;;;;;;5105224;28;20032;-43
2021/07/22 09:00:17;;;;;;;3.30;1.30;;;26.60;72.20;;;;;;5086841;28;20097;-43
2021/07/22 09:02:43;;;;;;;1.48;1.38;;;26.60;72.10;;;;;;5105457;28;20440;-42
2021/07/22 09:05:10;;;;;;;1.40;1.30;;;26.60;72.20;;;;;;5105408;28;20636;-43
2021/07/22 09:07:37;;;;;;;1.52;1.00;;;26.60;72.20;;;;;;5104960;28;20068;-42
2021/07/22 09:10:06;;;;;;;1.58;1.30;;;26.60;72.20;;;;;;5105454;28;20024;-42
2021/07/22 09:12:52;;;;;;;1.90;1.55;;;26.60;72.10;;;;;;5104724;28;20055;-42
2021/07/22 09:15:35;;;;;;;1.65;1.30;;;26.60;72.20;;;;;;5084769;28;20052;-42
2021/07/22 09:18:21;;;;;;;1.90;1.35;;;26.60;72.20;;;;;;5084445;28;20024;-42
2021/07/22 09:20:48;;;;;;;1.90;1.17;;;26.60;72.30;;;;;;5077407;28;20041;-42
2021/07/22 09:23:34;;;;;;;1.55;1.17;;;26.50;72.20;;;;;;5096487;28;20152;-42
2021/07/22 09:26:00;;;;;;;1.40;1.30;;;26.50;72.10;;;;;;5104646;28;20036;-43
2021/07/22 09:28:27;;;;;;;2.60;1.50;;;26.50;72.10;;;;;;5103602;28;20031;-42
2021/07/22 09:31:01;;;;;;;1.42;1.08;;;26.50;72.20;;;;;;5104707;28;20059;-42
2021/07/22 09:33:36;;;;;;;1.50;1.40;;;26.50;72.20;;;;;;5104975;28;20035;-42
2021/07/22 09:36:02;;;;;;;1.67;1.30;;;26.50;72.20;;;;;;5104718;28;20128;-42
2021/07/22 09:38:29;;;;;;;2.22;1.50;;;26.50;72.20;;;;;;5104433;28;20023;-42
2021/07/22 09:40:55;;;;;;;1.37;1.27;;;26.50;72.30;;;;;;5104716;28;20412;-42
2021/07/22 09:43:40;;;;;;;1.37;1.27;;;26.50;72.20;;;;;;5086699;28;20019;-42
2021/07/22 09:46:06;;;;;;;2.55;1.40;;;26.40;72.20;;;;;;5104554;28;20034;-42
2021/07/22 09:48:33;;;;;;;1.73;1.30;;;26.40;72.20;;;;;;5103843;28;20254;-42
2021/07/22 09:50:59;;;;;;;1.80;1.50;;;26.40;72.20;;;;;;5104481;28;20052;-42
2021/07/22 09:53:26;;;;;;;2.78;1.30;;;26.40;72.20;;;;;;5104117;28;20355;-43
2021/07/22 09:55:55;;;;;;;1.42;1.33;;;26.40;72.10;;;;;;5104285;28;20538;-42
2021/07/22 09:58:22;;;;;;;1.75;1.40;;;26.40;72.20;;;;;;5103926;28;20050;-42
2021/07/22 10:00:52;;;;;;;1.42;1.30;;;26.40;72.20;;;;;;5104122;28;20024;-42
2021/07/22 10:03:19;;;;;;;1.27;1.17;;;26.40;72.30;;;;;;5086027;28;20032;-42
2021/07/22 10:05:47;;;;;;;1.70;1.10;;;26.40;72.30;;;;;;5104263;28;20040;-42
2021/07/22 10:08:20;;;;;;;2.15;1.30;;;26.40;72.30;;;;;;5085618;28;20036;-42
2021/07/22 10:10:52;;;;;;;2.03;1.40;;;26.40;72.30;;;;;;5085803;28;20096;-42
2021/07/22 10:13:39;;;;;;;1.33;1.23;;;26.30;72.30;;;;;;5103802;28;20024;-41
2021/07/22 10:16:19;;;;;;;1.30;1.15;;;26.30;72.20;;;;;;5103915;28;20028;-42
2021/07/22 10:18:46;;;;;;;2.30;1.50;;;26.30;72.30;;;;;;5103717;28;20023;-42
2021/07/22 10:21:12;;;;;;;;;;;26.30;72.30;;;;;;5104441;28;20060;-42
2021/07/22 10:23:41;;;;;;;1.58;1.23;;;26.30;72.20;;;;;;5103656;28;19904;-42
2021/07/22 10:26:08;;;;;;;1.45;1.23;;;26.30;72.30;;;;;;5103982;28;20055;-42
2021/07/22 10:28:34;;;;;;;2.03;1.15;;;26.30;72.30;;;;;;5103418;28;20023;-42
2021/07/22 10:31:06;;;;;;;1.50;1.20;;;26.30;72.30;;;;;;5103657;28;20067;-42
2021/07/22 10:33:34;;;;;;;1.73;1.30;;;26.30;72.30;;;;;;5069276;28;20028;-43
2021/07/22 10:36:01;;;;;;;1.02;1.02;;;26.30;72.50;;;;;;5085776;28;20024;-42
2021/07/22 10:38:49;;;;;;;1.98;1.33;;;26.20;72.40;;;;;;5084709;28;20084;-42
2021/07/22 10:41:37;;;;;;;1.15;1.05;;;26.20;72.40;;;;;;5103519;28;20090;-42
2021/07/22 10:44:06;;;;;;;;;;;26.20;72.30;;;;;;5104061;28;20405;-42
2021/07/22 10:47:06;;;;;;;1.23;1.13;;;26.20;72.30;;;;;;5103593;28;19914;-43
2021/07/22 10:49:44;;;;;;;1.40;1.30;;;26.20;72.40;;;;;;5000847;28;20046;-44
2021/07/22 10:52:11;;;;;;;2.03;1.25;;;26.20;72.30;;;;;;5000867;28;20058;-42
2021/07/22 10:54:41;;;;;;;1.42;1.30;;;26.20;72.40;;;;;;4984653;28;20565;-42
2021/07/22 10:57:08;;;;;;;1.30;1.10;;;26.20;72.40;;;;;;5000927;28;20032;-42
2021/07/22 10:59:55;;;;;;;;;;;26.10;72.30;;;;;;4984571;28;20046;-42
2021/07/22 11:02:43;;;;;;;1.48;1.10;;;26.10;72.40;;;;;;5001056;28;20000;-42
2021/07/22 11:05:10;;;;;;;1.25;1.15;;;26.10;72.40;;;;;;5000897;28;20593;-42
2021/07/22 11:07:36;;;;;;;;;;;26.10;72.40;;;;;;5001461;28;20038;-42
2021/07/22 11:10:03;;;;;;;1.52;1.13;;;26.10;72.30;;;;;;5000588;28;20396;-42
2021/07/22 11:12:44;;;;;;;2.05;1.15;;;26.10;72.40;;;;;;5000687;28;20185;-42
2021/07/22 11:15:36;;;;;;;1.20;1.10;;;26.10;72.40;;;;;;5000869;28;20030;-42
2021/07/22 11:18:22;;;;;;;2.17;1.02;;;26.10;72.50;;;;;;4999986;28;20133;-42
2021/07/22 11:20:48;;;;;;;1.08;1.08;;;26.10;72.50;;;;;;5000690;28;20034;-42
2021/07/22 11:23:15;;;;;;;2.00;1.20;;;26.10;72.50;;;;;;5000477;28;20113;-42
2021/07/22 11:25:48;;;;;;;1.30;1.10;;;26.10;72.50;;;;;;5075835;28;20477;-42
2021/07/22 11:28:15;;;;;;;1.30;1.20;;;26.10;72.50;;;;;;5084509;28;20036;-42
2021/07/22 11:30:44;;;;;;;1.08;1.00;;;26.10;72.60;;;;;;5102812;28;20366;-42
2021/07/22 11:33:17;;;;;;;1.30;1.20;;;26.00;72.40;;;;;;5068598;28;20028;-42
2021/07/22 11:36:04;;;;;;;1.30;1.20;;;26.10;72.50;;;;;;5103160;28;20086;-42
2021/07/22 11:38:30;;;;;;;1.13;1.02;;;26.00;72.40;;;;;;5084229;28;20039;-42
2021/07/22 11:40:56;;;;;;;1.25;1.00;;;26.00;72.50;;;;;;5084535;28;20016;-42
2021/07/22 11:43:33;;;;;;;1.33;1.10;;;26.00;72.40;;;;;;5103109;28;20056;-42
2021/07/22 11:45:59;;;;;;;1.30;1.20;;;26.00;72.50;;;;;;5102924;28;20257;-43
2021/07/22 11:48:25;;;;;;;1.48;1.38;;;26.00;72.40;;;;;;5102557;28;20489;-43
2021/07/22 11:51:08;;;;;;;1.37;1.13;;;26.00;72.60;;;;;;5104562;28;20040;-42
2021/07/22 11:53:35;;;;;;;1.80;1.13;;;26.00;72.50;;;;;;5106710;28;20042;-42
2021/07/22 11:56:18;;;;;;;1.63;1.25;;;26.00;72.50;;;;;;5106872;28;20020;-43
2021/07/22 11:58:48;;;;;;;1.45;1.17;;;26.00;72.60;;;;;;5106036;28;20070;-42
2021/07/22 12:01:15;;;;;;;1.65;1.30;;;26.00;72.60;;;;;;5106889;28;20405;-42
2021/07/22 12:03:44;;;;;;;1.30;1.20;;;26.00;72.60;;;;;;5106814;28;20027;-42
2021/07/22 12:06:10;;;;;;;1.30;1.20;;;26.00;72.60;;;;;;5106696;28;20028;-42
2021/07/22 12:08:37;;;;;;;1.90;1.33;;;26.00;72.60;;;;;;5071529;28;20012;-42
2021/07/22 12:11:03;;;;;;;1.37;1.27;;;26.00;72.60;;;;;;5106128;28;20032;-42
2021/07/22 12:13:52;;;;;;;2.33;1.20;;;26.00;72.60;;;;;;5106750;28;20556;-42
2021/07/22 12:16:25;;;;;;;1.58;1.10;;;26.00;72.60;;;;;;5106470;28;20085;-42
2021/07/22 12:18:54;;;;;;;1.77;1.20;;;25.90;72.50;;;;;;5088491;28;20036;-43
2021/07/22 12:21:25;;;;;;;1.40;1.30;;;25.90;72.60;;;;;;5106016;28;20020;-42
2021/07/22 12:23:52;;;;;;;1.60;1.27;;;25.90;72.60;;;;;;5095366;28;20033;-43
2021/07/22 12:26:18;;;;;;;1.20;1.08;;;25.90;72.60;;;;;;5086057;28;20397;-42
2021/07/22 12:28:45;;;;;;;2.17;1.30;;;25.90;72.60;;;;;;5067738;28;20036;-42
2021/07/22 12:31:14;;;;;;;;;;;26.00;72.70;;;;;;5068124;28;20055;-42
2021/07/22 12:33:40;;;;;;;1.77;1.15;;;26.00;72.70;;;;;;5085955;28;19912;-43
2021/07/22 12:36:22;;;;;;;1.17;1.08;;;26.00;72.70;;;;;;5097489;28;20028;-42
2021/07/22 12:39:10;;;;;;;1.33;1.23;;;26.00;72.70;;;;;;5105967;28;20109;-43
2021/07/22 12:41:36;;;;;;;2.47;1.25;;;26.00;72.70;;;;;;5106090;28;20032;-43
2021/07/22 12:44:03;;;;;;;1.63;1.17;;;26.00;72.70;;;;;;5105910;28;20039;-42
2021/07/22 12:46:30;;;;;;;2.08;1.02;;;26.00;72.70;;;;;;5105945;28;20032;-42
2021/07/22 12:48:57;;;;;;;1.27;1.17;;;26.00;72.70;;;;;;5106049;28;20028;-42
2021/07/22 12:51:23;;;;;;;1.40;1.10;;;26.00;72.70;;;;;;5070599;28;20052;-42
2021/07/22 12:53:49;;;;;;;2.13;1.20;;;26.00;72.60;;;;;;5105603;28;20024;-41
2021/07/22 12:56:16;;;;;;;1.50;1.23;;;26.00;72.60;;;;;;5105797;28;20299;-41
2021/07/22 12:58:48;;;;;;;1.80;1.00;;;26.00;72.60;;;;;;5087300;28;20048;-42